map of SYT home
SYT - Airport
Location
City:  St-Yan, Bourgogne (Burgundy), France
Name:Charolais Bourgogne S.
ICAO:LFLN
IATA:SYT

Details
Type:Airport (Aerodrome, Airfield)
Use:Public/Civil
Latitude:4624'23"N (46.406492)
Longitude:401'16"E (4.021097)
Elevation:796 ft (243 m)
Variation:1.29E (WMM2015 magnetic declination)
0.12 annual change
Runways:2
Longest:6660 × 148 ft (2030 × 45 m)

Time
Time Zone:UTC+1 (DST+2)
Local Time:

Weather
METAR:LFLN 192100Z AUTO 00000KT 3000 R33/1300D BR NSC 09/08 Q1023 TEMPO 0300 FG VV///

Related Locations
Nearby:
Farthest:CHT: 12249 mi / 19713 km
Waitangi [Tuuta], CIT, NZ

Find:

   beyond  
but within

Other Information
Maps:
NOTAMs:
Links:
Sources:

  
  • flag of France
  • flag of Bourgogne (Burgundy)
  

Sectional Chart

Flight Planning
at skyvector.com

Satellite Image

Google Maps Satellite view

 

Copyright © 2004-2018 Karl L. Swartz. All rights reserved.
The Great Circle Mapper name and logo are trademarks of the Great Circle Mapper.
All other trademarks mentioned herein belong to their respective owners.
Please see credits for attibutions and further copyright information.

  Follow gcmap on Facebook Follow gcmap on Twitter Follow gcmap on Google+ GCmap on LinkedIn

hCard Microformat

Geo Microformat